Погода Тренчинна неделю

Тренчинский край, Словакия

16 - 22 июня
  • 16июня
    Сегодня
    +10°
    +22°
    Небольшая облачность
    ВремяПогодаТемператураВлажностьДавлениеВетер, м/сВероятность осадков
    02:00Пасмурно, дождь+15°C95 %740 мм0.6 м/с70 %
    05:00Пасмурно, дождь+15°C96 %739 мм1.1 м/с88 %
    08:00Пасмурно, дождь+14°C95 %740 мм1.1 м/с86 %
    11:00Небольшая облачность, ливень+17°C83 %740 мм3.3 м/с73 %
    14:00Небольшая облачность+21°C65 %741 мм3.8 м/с48 %
    17:00Ясно и безоблачно+21°C59 %740 мм3.1 м/с34 %
    20:00Ясно и безоблачно+19°C78 %741 мм1.3 м/с3 %
    23:00Ясно и безоблачно+16°C83 %742 мм1.1 м/с2 %
  • 17июня
    Понедельник
    +13°
    +26°
    Небольшая облачность
    ВремяПогодаТемператураВлажностьДавлениеВетер, м/сВероятность осадков
    02:00Ясно и безоблачно+12°C94 %742 мм1.4 м/с2 %
    05:00Ясно и безоблачно+11°C96 %743 мм1.5 м/с2 %
    08:00Ясно и безоблачно+16°C84 %744 мм0.9 м/с2 %
    11:00Облачно с прояснениями+22°C59 %745 мм0.4 м/с2 %
    14:00Небольшая облачность+25°C55 %745 мм1.2 м/с14 %
    17:00Небольшая облачность+25°C56 %744 мм1.4 м/с2 %
    20:00Облачно с прояснениями+22°C79 %744 мм1.4 м/с3 %
    23:00Небольшая облачность+18°C82 %745 мм1.1 м/с1 %
  • 18июня
    Вторник
    +16°
    +28°
    Небольшая облачность
    ВремяПогодаТемператураВлажностьДавлениеВетер, м/сВероятность осадков
    02:00Небольшая облачность+15°C91 %745 мм1.3 м/с2 %
    05:00Ясно и безоблачно+13°C92 %745 мм1.2 м/с6 %
    08:00Ясно и безоблачно+19°C80 %746 мм0.3 м/с7 %
    11:00Ясно и безоблачно+25°C64 %746 мм3.2 м/с5 %
    14:00Небольшая облачность+27°C59 %746 мм3.6 м/с6 %
    17:00Практически безоблачно+28°C56 %745 мм3.3 м/с8 %
    20:00Облачно с прояснениями+25°C76 %744 мм1.8 м/с4 %
    23:00Небольшая облачность+19°C87 %744 мм1.9 м/с2 %
  • 19июня
    Среда
    +13°
    +28°
    Ясно и безоблачно
    ВремяПогодаТемператураВлажностьДавлениеВетер, м/сВероятность осадков
    02:00Небольшая облачность+18°C86 %744 мм2.1 м/с2 %
    05:00Ясно и безоблачно+16°C86 %743 мм2.3 м/с2 %
    08:00Небольшая облачность+22°C72 %743 мм1.9 м/с2 %
    11:00Практически безоблачно+26°C59 %743 мм4.4 м/с2 %
    14:00Ясно и безоблачно+27°C57 %743 мм4.5 м/с6 %
    17:00Ясно и безоблачно+26°C58 %743 мм3.0 м/с10 %
    20:00Практически безоблачно+25°C69 %743 мм1.0 м/с11 %
    23:00Ясно и безоблачно+19°C87 %745 мм2.0 м/с5 %
  • 20июня
    Четверг
    +14°
    +25°
    Небольшая облачность
    ВремяПогодаТемператураВлажностьДавлениеВетер, м/сВероятность осадков
    02:00Небольшая облачность+17°C89 %746 мм4.0 м/с2 %
    05:00Практически безоблачно+14°C87 %747 мм3.9 м/с2 %
    08:00Ясно и безоблачно+17°C77 %748 мм4.0 м/с2 %
    11:00Ясно и безоблачно+22°C61 %748 мм2.7 м/с5 %
    14:00Небольшая облачность+24°C47 %748 мм1.1 м/с9 %
    17:00Облачно с прояснениями+25°C45 %746 мм0.5 м/с6 %
    20:00Облачно с прояснениями+22°C70 %746 мм0.8 м/с3 %
    23:00Облачно с прояснениями+18°C78 %746 мм1.0 м/с6 %
Мы используем cookies
Соглашаюсь